Tacloban, Philippines
Current Conditions -  °F | °C
As of 10:00 AM on Tuesday 21 Oct 2014 (Local Time) from RPVM Reporting Station
Few Clouds Few Clouds  
Wind Chill: 88°   Ceiling: Unl
Heat Index: 102°   Visibility: 6mi
Dew Point: 79°   Wind: 6mph
Humidity: 75%   Direction: NA
Pressure: 29.94"   Gusts: NA
Location:  11.29°N, 125.02°E
Report Text: RPVM 210200Z VRB05KT 9999 FEW020 31/26 Q1014 RMK A2994
Loading
Personal Weather Stations






























Interactive Weather Map
Tropical Storm Tracking
New forecast layout! Learn more

10-Day Weather Forecast

Advertisements
Track Severe Weather on mobile